PWSweather.com
Personal Weather Stations
Station Observations
OLESAMETEO
Olesa De Montserrat, Olesa De MontserratES

Olesa De MontserratOlesa De MontserratES

Lat: 41.53982, Lon: 1.89508

Elevation: 110

Station Type: DAVIS VANTAGE VUE

http://olesameteo.net

Latest ConditionsUpdated 7:30:01 PM GMT+01:01 Monday, Jul 16, 2018
Currently Today's Max Today's Min Today's Average
Temperature 80.2°F26.8°C 92.4°F33.6°C 70.9°F21.6°C 78.0°F25.6°C
Dew Point 68.3°F20.2°C 70.9°F21.6°C 54.6°F12.6°C 65.0°F18.3°C
Winds 1.2 mph WSW1.9 kmh WSW 6.9 mph -11.1 kmh - - 1.6 mph 2.6 kmh
Wind Gusts 2.3 mph3.7 kmh 11.5 mph18.5 kmh - -
Humidity 67% 90% 30% 68%
Pressure 29.92 in1013.2 mb 29.92 in1013.2 mb 29.80 in1009.1 mb -
Precipitation - 0.04 in1.0 mm - -
Hour Temp Dew Point Humidity Winds Wind Gusts Pressure Precip Precip Rate Daily Precip Total
07:30 PM 80.2°F26.8°C 68.3°F20.2°C 67% 1.2 mph WSW1.9 kmh WSW 2.3 mph3.7 kmh 29.92 in1013.2 mb - 0.00 in0.0 mm 0.04 in1.0 mm
07:20 PM 80.4°F26.9°C 68.5°F20.3°C 67% Calm Calm 1.2 mph1.9 kmh 29.92 in1013.2 mb - 0.00 in0.0 mm 0.04 in1.0 mm
07:10 PM 80.8°F27.1°C 68.4°F20.2°C 66% Calm Calm 2.3 mph3.7 kmh 29.91 in1012.9 mb - 0.00 in0.0 mm 0.04 in1.0 mm
07:00 PM 81.4°F27.4°C 68.5°F20.3°C 65% 2.3 mph SSW3.7 kmh SSW 4.6 mph7.4 kmh 29.91 in1012.9 mb - 0.00 in0.0 mm 0.04 in1.0 mm
06:50 PM 82.4°F28.0°C 68.6°F20.3°C 63% 1.2 mph SW1.9 kmh SW 3.5 mph5.6 kmh 29.91 in1012.9 mb - 0.00 in0.0 mm 0.04 in1.0 mm
06:40 PM 83.2°F28.4°C 68.4°F20.2°C 61% 3.5 mph SW5.6 kmh SW 3.5 mph5.6 kmh 29.90 in1012.5 mb - 0.00 in0.0 mm 0.04 in1.0 mm
06:30 PM 84.0°F28.9°C 68.6°F20.3°C 60% 1.2 mph SSW1.9 kmh SSW 3.5 mph5.6 kmh 29.90 in1012.5 mb - 0.00 in0.0 mm 0.04 in1.0 mm
06:20 PM 84.1°F28.9°C 68.7°F20.4°C 60% 2.3 mph S3.7 kmh S 4.6 mph7.4 kmh 29.90 in1012.5 mb - 0.00 in0.0 mm 0.04 in1.0 mm
06:10 PM 85.2°F29.6°C 68.8°F20.4°C 58% 2.3 mph SSW3.7 kmh SSW 3.5 mph5.6 kmh 29.90 in1012.5 mb - 0.00 in0.0 mm 0.04 in1.0 mm
06:00 PM 84.8°F29.3°C 69.3°F20.7°C 60% 2.3 mph SSW3.7 kmh SSW 6.9 mph11.1 kmh 29.89 in1012.2 mb - 0.00 in0.0 mm 0.04 in1.0 mm
05:50 PM 84.8°F29.3°C 68.4°F20.2°C 58% 2.3 mph SSW3.7 kmh SSW 4.6 mph7.4 kmh 29.89 in1012.2 mb - 0.00 in0.0 mm 0.04 in1.0 mm
05:40 PM 85.7°F29.8°C 66.0°F18.9°C 52% 1.2 mph SSW1.9 kmh SSW 3.5 mph5.6 kmh 29.89 in1012.2 mb - 0.00 in0.0 mm 0.04 in1.0 mm
05:30 PM 88.0°F31.1°C 64.0°F17.8°C 45% 2.3 mph S3.7 kmh S 4.6 mph7.4 kmh 29.88 in1011.9 mb - 0.00 in0.0 mm 0.04 in1.0 mm
05:20 PM 90.6°F32.6°C 57.6°F14.2°C 33% Calm Calm 2.3 mph3.7 kmh 29.88 in1011.9 mb - 0.00 in0.0 mm 0.04 in1.0 mm
05:10 PM 90.9°F32.7°C 57.0°F13.9°C 32% Calm Calm 1.2 mph1.9 kmh 29.88 in1011.9 mb - 0.00 in0.0 mm 0.04 in1.0 mm
05:00 PM 91.8°F33.2°C 56.9°F13.8°C 31% 2.3 mph W3.7 kmh W 4.6 mph7.4 kmh 29.87 in1011.5 mb - 0.00 in0.0 mm 0.04 in1.0 mm
04:50 PM 91.6°F33.1°C 55.8°F13.2°C 30% 4.6 mph W7.4 kmh W 11.5 mph18.5 kmh 29.87 in1011.5 mb - 0.00 in0.0 mm 0.04 in1.0 mm
04:40 PM 91.8°F33.2°C 56.0°F13.3°C 30% 4.6 mph NW7.4 kmh NW 10.4 mph16.7 kmh 29.87 in1011.5 mb - 0.00 in0.0 mm 0.04 in1.0 mm
04:30 PM 92.4°F33.6°C 56.5°F13.6°C 30% 3.5 mph W5.6 kmh W 10.4 mph16.7 kmh 29.87 in1011.5 mb - 0.00 in0.0 mm 0.04 in1.0 mm
04:20 PM 91.7°F33.2°C 55.9°F13.3°C 30% 2.3 mph N3.7 kmh N 6.9 mph11.1 kmh 29.88 in1011.9 mb - 0.00 in0.0 mm 0.04 in1.0 mm
04:10 PM 91.0°F32.8°C 55.2°F12.9°C 30% 4.6 mph W7.4 kmh W 6.9 mph11.1 kmh 29.88 in1011.9 mb - 0.00 in0.0 mm 0.04 in1.0 mm
04:00 PM 90.5°F32.5°C 54.8°F12.7°C 30% 4.6 mph WSW7.4 kmh WSW 10.4 mph16.7 kmh 29.88 in1011.9 mb - 0.00 in0.0 mm 0.04 in1.0 mm
03:50 PM 90.8°F32.7°C 55.1°F12.8°C 30% 1.2 mph NW1.9 kmh NW 3.5 mph5.6 kmh 29.88 in1011.9 mb - 0.00 in0.0 mm 0.04 in1.0 mm
03:40 PM 90.2°F32.3°C 54.6°F12.6°C 30% 5.8 mph N9.3 kmh N 10.4 mph16.7 kmh 29.88 in1011.9 mb - 0.00 in0.0 mm 0.04 in1.0 mm
03:30 PM 90.5°F32.5°C 54.9°F12.7°C 30% 1.2 mph NW1.9 kmh NW 3.5 mph5.6 kmh 29.88 in1011.9 mb - 0.00 in0.0 mm 0.04 in1.0 mm
03:20 PM 90.4°F32.4°C 54.7°F12.6°C 30% 3.5 mph WNW5.6 kmh WNW 5.8 mph9.3 kmh 29.88 in1011.9 mb - 0.00 in0.0 mm 0.04 in1.0 mm
03:10 PM 90.0°F32.2°C 55.3°F12.9°C 31% 2.3 mph WNW3.7 kmh WNW 3.5 mph5.6 kmh 29.87 in1011.5 mb - 0.00 in0.0 mm 0.04 in1.0 mm
03:00 PM 89.3°F31.8°C 55.5°F13.1°C 32% 2.3 mph WSW3.7 kmh WSW 5.8 mph9.3 kmh 29.87 in1011.5 mb - 0.00 in0.0 mm 0.04 in1.0 mm
02:50 PM 88.5°F31.4°C 58.9°F14.9°C 37% 2.3 mph NE3.7 kmh NE 3.5 mph5.6 kmh 29.87 in1011.5 mb - 0.00 in0.0 mm 0.04 in1.0 mm
02:40 PM 88.2°F31.2°C 59.4°F15.2°C 38% 1.2 mph ESE1.9 kmh ESE 3.5 mph5.6 kmh 29.86 in1011.2 mb - 0.00 in0.0 mm 0.04 in1.0 mm
02:30 PM 88.2°F31.2°C 59.4°F15.2°C 38% 1.2 mph N1.9 kmh N 4.6 mph7.4 kmh 29.86 in1011.2 mb - 0.00 in0.0 mm 0.04 in1.0 mm
02:20 PM 87.7°F30.9°C 59.0°F15.0°C 38% 1.2 mph NW1.9 kmh NW 3.5 mph5.6 kmh 29.86 in1011.2 mb - 0.00 in0.0 mm 0.04 in1.0 mm
02:10 PM 87.4°F30.8°C 59.4°F15.2°C 39% Calm Calm 2.3 mph3.7 kmh 29.86 in1011.2 mb - 0.00 in0.0 mm 0.04 in1.0 mm
02:00 PM 86.5°F30.3°C 58.6°F14.8°C 39% 1.2 mph N1.9 kmh N 2.3 mph3.7 kmh 29.86 in1011.2 mb - 0.00 in0.0 mm 0.04 in1.0 mm
01:50 PM 85.6°F29.8°C 60.5°F15.8°C 43% Calm Calm 1.2 mph1.9 kmh 29.87 in1011.5 mb - 0.00 in0.0 mm 0.04 in1.0 mm
01:40 PM 84.3°F29.1°C 61.3°F16.3°C 46% Calm Calm -- 29.87 in1011.5 mb - 0.00 in0.0 mm 0.04 in1.0 mm
01:30 PM 82.2°F27.9°C 61.8°F16.6°C 50% Calm Calm 1.2 mph1.9 kmh 29.87 in1011.5 mb - 0.00 in0.0 mm 0.04 in1.0 mm
01:20 PM 81.5°F27.5°C 60.5°F15.8°C 49% 1.2 mph NE1.9 kmh NE 3.5 mph5.6 kmh 29.87 in1011.5 mb - 0.00 in0.0 mm 0.04 in1.0 mm
01:10 PM 80.0°F26.7°C 60.2°F15.7°C 51% 2.3 mph NNW3.7 kmh NNW 3.5 mph5.6 kmh 29.88 in1011.9 mb - 0.00 in0.0 mm 0.04 in1.0 mm
01:00 PM 79.7°F26.5°C 59.4°F15.2°C 50% 3.5 mph N5.6 kmh N 8.1 mph13.0 kmh 29.88 in1011.9 mb - 0.00 in0.0 mm 0.04 in1.0 mm
12:50 PM 79.4°F26.3°C 58.0°F14.4°C 48% 1.2 mph NW1.9 kmh NW 4.6 mph7.4 kmh 29.88 in1011.9 mb - 0.00 in0.0 mm 0.04 in1.0 mm
12:40 PM 77.7°F25.4°C 60.7°F15.9°C 56% 3.5 mph N5.6 kmh N 3.5 mph5.6 kmh 29.87 in1011.5 mb - 0.00 in0.0 mm 0.04 in1.0 mm
12:30 PM 76.2°F24.6°C 59.9°F15.5°C 57% 4.6 mph N7.4 kmh N 11.5 mph18.5 kmh 29.86 in1011.2 mb - 0.00 in0.0 mm 0.04 in1.0 mm
12:20 PM 75.0°F23.9°C 60.6°F15.9°C 61% 5.8 mph N9.3 kmh N 9.2 mph14.8 kmh 29.85 in1010.8 mb - 0.00 in0.0 mm 0.04 in1.0 mm
12:10 PM 74.0°F23.3°C 61.5°F16.4°C 65% 2.3 mph N3.7 kmh N 6.9 mph11.1 kmh 29.82 in1009.8 mb - 0.00 in0.0 mm 0.04 in1.0 mm
12:00 PM 73.1°F22.8°C 61.5°F16.4°C 67% 5.8 mph 9.3 kmh 11.5 mph18.5 kmh 29.84 in1010.5 mb - 0.00 in0.0 mm 0.04 in1.0 mm
11:50 AM 72.2°F22.3°C 62.2°F16.8°C 71% 4.6 mph N7.4 kmh N 9.2 mph14.8 kmh 29.85 in1010.8 mb - 0.00 in0.0 mm 0.04 in1.0 mm
11:40 AM 71.7°F22.1°C 62.6°F17.0°C 73% 5.8 mph NNE9.3 kmh NNE 10.4 mph16.7 kmh 29.86 in1011.2 mb - 0.00 in0.0 mm 0.04 in1.0 mm
11:30 AM 72.0°F22.2°C 62.8°F17.1°C 73% 6.9 mph N11.1 kmh N 11.5 mph18.5 kmh 29.87 in1011.5 mb - 0.00 in0.0 mm 0.04 in1.0 mm
11:20 AM 72.6°F22.6°C 63.5°F17.5°C 73% 4.6 mph NNW7.4 kmh NNW 11.5 mph18.5 kmh 29.88 in1011.9 mb - 0.00 in0.0 mm 0.04 in1.0 mm
11:10 AM 72.7°F22.6°C 63.9°F17.7°C 74% 3.5 mph N5.6 kmh N 8.1 mph13.0 kmh 29.88 in1011.9 mb - 0.00 in0.0 mm 0.04 in1.0 mm
11:00 AM 72.7°F22.6°C 63.9°F17.7°C 74% 4.6 mph N7.4 kmh N 6.9 mph11.1 kmh 29.86 in1011.2 mb - 0.00 in0.0 mm 0.04 in1.0 mm
10:50 AM 72.7°F22.6°C 63.9°F17.7°C 74% 5.8 mph NNW9.3 kmh NNW 6.9 mph11.1 kmh 29.86 in1011.2 mb - 0.00 in0.0 mm 0.04 in1.0 mm
10:40 AM 72.2°F22.3°C 64.2°F17.9°C 76% 3.5 mph N5.6 kmh N 9.2 mph14.8 kmh 29.86 in1011.2 mb - 0.00 in0.0 mm 0.04 in1.0 mm
10:30 AM 71.8°F22.1°C 64.2°F17.9°C 77% 4.6 mph N7.4 kmh N 6.9 mph11.1 kmh 29.86 in1011.2 mb - 0.00 in0.0 mm 0.04 in1.0 mm
10:20 AM 71.6°F22.0°C 64.0°F17.8°C 77% 2.3 mph N3.7 kmh N 3.5 mph5.6 kmh 29.86 in1011.2 mb - 0.00 in0.0 mm 0.04 in1.0 mm
10:00 AM 71.0°F21.7°C 64.2°F17.9°C 79% 2.3 mph N3.7 kmh N 3.5 mph5.6 kmh 29.86 in1011.2 mb - 0.00 in0.0 mm 0.04 in1.0 mm
09:50 AM 71.2°F21.8°C 64.4°F18.0°C 79% 4.6 mph N7.4 kmh N 6.9 mph11.1 kmh 29.86 in1011.2 mb - 0.00 in0.0 mm 0.04 in1.0 mm
09:40 AM 71.6°F22.0°C 65.1°F18.4°C 80% 3.5 mph N5.6 kmh N 10.4 mph16.7 kmh 29.85 in1010.8 mb - 0.00 in0.0 mm 0.04 in1.0 mm
09:30 AM 72.4°F22.4°C 66.6°F19.2°C 82% 2.3 mph N3.7 kmh N 3.5 mph5.6 kmh 29.84 in1010.5 mb - 0.00 in0.0 mm 0.04 in1.0 mm
09:20 AM 72.6°F22.6°C 67.8°F19.9°C 85% 2.3 mph NNE3.7 kmh NNE 2.3 mph3.7 kmh 29.83 in1010.2 mb - 0.00 in0.0 mm 0.04 in1.0 mm
09:10 AM 72.5°F22.5°C 68.4°F20.2°C 87% 1.2 mph NNW1.9 kmh NNW 3.5 mph5.6 kmh 29.83 in1010.2 mb - 0.00 in0.0 mm 0.04 in1.0 mm
09:00 AM 72.3°F22.4°C 68.8°F20.4°C 89% 2.3 mph NNE3.7 kmh NNE 3.5 mph5.6 kmh 29.83 in1010.2 mb - 0.00 in0.0 mm 0.04 in1.0 mm
08:50 AM 72.0°F22.2°C 68.9°F20.5°C 90% 1.2 mph N1.9 kmh N 3.5 mph5.6 kmh 29.82 in1009.8 mb - 0.02 in0.5 mm 0.04 in1.0 mm
08:40 AM 72.0°F22.2°C 68.9°F20.5°C 90% Calm Calm 1.2 mph1.9 kmh 29.82 in1009.8 mb - 0.04 in1.0 mm 0.04 in1.0 mm
08:30 AM 72.1°F22.3°C 68.7°F20.4°C 89% 1.2 mph S1.9 kmh S 2.3 mph3.7 kmh 29.82 in1009.8 mb - 0.04 in1.0 mm 0.04 in1.0 mm
08:20 AM 72.0°F22.2°C 68.2°F20.1°C 88% Calm Calm 1.2 mph1.9 kmh 29.81 in1009.5 mb - 0.04 in1.0 mm 0.04 in1.0 mm
08:10 AM 72.1°F22.3°C 68.3°F20.2°C 88% 2.3 mph N3.7 kmh N 3.5 mph5.6 kmh 29.80 in1009.1 mb - 0.04 in1.0 mm 0.04 in1.0 mm
08:00 AM 72.6°F22.6°C 68.5°F20.3°C 87% 1.2 mph NW1.9 kmh NW 2.3 mph3.7 kmh 29.80 in1009.1 mb - 0.04 in1.0 mm 0.04 in1.0 mm
07:30 AM 74.2°F23.4°C 68.0°F20.0°C 81% Calm Calm 1.2 mph1.9 kmh 29.81 in1009.5 mb - 0.00 in0.0 mm 0.00 in0.0 mm
07:20 AM 74.4°F23.6°C 68.1°F20.1°C 81% Calm Calm 1.2 mph1.9 kmh 29.80 in1009.1 mb - 0.00 in0.0 mm 0.00 in0.0 mm
07:10 AM 74.2°F23.4°C 68.0°F20.0°C 81% Calm Calm 1.2 mph1.9 kmh 29.81 in1009.5 mb - 0.00 in0.0 mm 0.00 in0.0 mm
07:00 AM 74.1°F23.4°C 67.9°F19.9°C 81% Calm Calm -- 29.82 in1009.8 mb - 0.00 in0.0 mm 0.00 in0.0 mm
06:50 AM 73.9°F23.3°C 67.7°F19.8°C 81% Calm Calm 1.2 mph1.9 kmh 29.82 in1009.8 mb - 0.00 in0.0 mm 0.00 in0.0 mm
06:40 AM 73.6°F23.1°C 67.8°F19.9°C 82% 1.2 mph N1.9 kmh N 3.5 mph5.6 kmh 29.82 in1009.8 mb - 0.00 in0.0 mm 0.00 in0.0 mm
06:30 AM 73.2°F22.9°C 67.7°F19.8°C 83% 1.2 mph N1.9 kmh N 2.3 mph3.7 kmh 29.82 in1009.8 mb - 0.00 in0.0 mm 0.00 in0.0 mm
06:20 AM 72.8°F22.7°C 67.7°F19.8°C 84% 2.3 mph N3.7 kmh N 3.5 mph5.6 kmh 29.82 in1009.8 mb - 0.00 in0.0 mm 0.00 in0.0 mm
06:10 AM 72.8°F22.7°C 67.7°F19.8°C 84% 1.2 mph NNW1.9 kmh NNW 3.5 mph5.6 kmh 29.82 in1009.8 mb - 0.00 in0.0 mm 0.00 in0.0 mm
06:00 AM 72.7°F22.6°C 67.9°F19.9°C 85% 1.2 mph N1.9 kmh N 3.5 mph5.6 kmh 29.81 in1009.5 mb - 0.00 in0.0 mm 0.00 in0.0 mm
05:50 AM 72.2°F22.3°C 67.8°F19.9°C 86% Calm Calm 1.2 mph1.9 kmh 29.82 in1009.8 mb - 0.00 in0.0 mm 0.00 in0.0 mm
05:40 AM 71.5°F21.9°C 67.4°F19.7°C 87% Calm Calm 1.2 mph1.9 kmh 29.83 in1010.2 mb - 0.00 in0.0 mm 0.00 in0.0 mm
05:30 AM 71.0°F21.7°C 66.9°F19.4°C 87% Calm Calm -- 29.83 in1010.2 mb - 0.00 in0.0 mm 0.00 in0.0 mm
05:20 AM 70.9°F21.6°C 66.8°F19.3°C 87% Calm Calm 2.3 mph3.7 kmh 29.84 in1010.5 mb - 0.00 in0.0 mm 0.00 in0.0 mm
05:10 AM 71.1°F21.7°C 66.7°F19.3°C 86% Calm Calm -- 29.83 in1010.2 mb - 0.00 in0.0 mm 0.00 in0.0 mm
05:00 AM 71.8°F22.1°C 67.4°F19.7°C 86% Calm Calm 1.2 mph1.9 kmh 29.84 in1010.5 mb - 0.00 in0.0 mm 0.00 in0.0 mm
04:50 AM 72.0°F22.2°C 67.9°F19.9°C 87% Calm Calm -- 29.84 in1010.5 mb - 0.00 in0.0 mm 0.00 in0.0 mm
04:40 AM 71.6°F22.0°C 67.5°F19.7°C 87% Calm Calm 1.2 mph1.9 kmh 29.84 in1010.5 mb - 0.00 in0.0 mm 0.00 in0.0 mm
04:30 AM 71.5°F21.9°C 66.7°F19.3°C 85% Calm Calm -- 29.83 in1010.2 mb - 0.00 in0.0 mm 0.00 in0.0 mm
04:20 AM 72.0°F22.2°C 67.6°F19.8°C 86% Calm Calm -- 29.83 in1010.2 mb - 0.00 in0.0 mm 0.00 in0.0 mm
04:10 AM 73.1°F22.8°C 68.4°F20.2°C 85% 1.2 mph SSW1.9 kmh SSW 2.3 mph3.7 kmh 29.83 in1010.2 mb - 0.00 in0.0 mm 0.00 in0.0 mm
04:00 AM 73.6°F23.1°C 68.8°F20.4°C 85% Calm Calm -- 29.84 in1010.5 mb - 0.00 in0.0 mm 0.00 in0.0 mm
03:50 AM 73.7°F23.2°C 69.0°F20.6°C 85% Calm Calm -- 29.83 in1010.2 mb - 0.00 in0.0 mm 0.00 in0.0 mm
03:40 AM 73.8°F23.2°C 69.3°F20.7°C 86% Calm Calm 1.2 mph1.9 kmh 29.83 in1010.2 mb - 0.00 in0.0 mm 0.00 in0.0 mm
03:30 AM 73.6°F23.1°C 69.5°F20.8°C 87% 1.2 mph WSW1.9 kmh WSW 3.5 mph5.6 kmh 29.84 in1010.5 mb - 0.00 in0.0 mm 0.00 in0.0 mm
03:20 AM 73.2°F22.9°C 69.1°F20.6°C 87% Calm Calm -- 29.84 in1010.5 mb - 0.00 in0.0 mm 0.00 in0.0 mm
03:10 AM 73.0°F22.8°C 68.9°F20.5°C 87% Calm Calm -- 29.84 in1010.5 mb - 0.00 in0.0 mm 0.00 in0.0 mm
03:00 AM 73.0°F22.8°C 68.9°F20.5°C 87% Calm Calm -- 29.84 in1010.5 mb - 0.00 in0.0 mm 0.00 in0.0 mm
02:50 AM 73.0°F22.8°C 68.9°F20.5°C 87% Calm Calm -- 29.84 in1010.5 mb - 0.00 in0.0 mm 0.00 in0.0 mm
02:40 AM 73.2°F22.9°C 69.1°F20.6°C 87% Calm Calm -- 29.84 in1010.5 mb - 0.00 in0.0 mm 0.00 in0.0 mm
02:30 AM 73.3°F22.9°C 69.2°F20.7°C 87% Calm Calm 1.2 mph1.9 kmh 29.84 in1010.5 mb - 0.00 in0.0 mm 0.00 in0.0 mm
02:20 AM 73.6°F23.1°C 69.5°F20.8°C 87% Calm Calm -- 29.84 in1010.5 mb - 0.00 in0.0 mm 0.00 in0.0 mm
02:10 AM 73.5°F23.1°C 69.4°F20.8°C 87% Calm Calm 1.2 mph1.9 kmh 29.84 in1010.5 mb - 0.00 in0.0 mm 0.00 in0.0 mm
02:00 AM 73.3°F22.9°C 69.2°F20.7°C 87% Calm Calm -- 29.85 in1010.8 mb - 0.00 in0.0 mm 0.00 in0.0 mm
01:50 AM 73.5°F23.1°C 69.1°F20.6°C 86% Calm Calm 2.3 mph3.7 kmh 29.85 in1010.8 mb - 0.00 in0.0 mm 0.00 in0.0 mm
01:40 AM 74.5°F23.6°C 69.4°F20.8°C 84% 1.2 mph S1.9 kmh S 2.3 mph3.7 kmh 29.85 in1010.8 mb - 0.00 in0.0 mm 0.00 in0.0 mm
01:30 AM 75.1°F23.9°C 69.9°F21.1°C 84% Calm Calm -- 29.85 in1010.8 mb - 0.00 in0.0 mm 0.00 in0.0 mm
01:20 AM 75.2°F24.0°C 70.4°F21.3°C 85% Calm Calm -- 29.85 in1010.8 mb - 0.00 in0.0 mm 0.00 in0.0 mm
01:10 AM 75.3°F24.1°C 70.1°F21.2°C 84% Calm Calm -- 29.85 in1010.8 mb - 0.00 in0.0 mm 0.00 in0.0 mm
01:00 AM 75.4°F24.1°C 70.2°F21.2°C 84% Calm Calm -- 29.86 in1011.2 mb - 0.00 in0.0 mm 0.00 in0.0 mm
12:50 AM 75.3°F24.1°C 70.5°F21.4°C 85% Calm Calm -- 29.87 in1011.5 mb - 0.00 in0.0 mm 0.00 in0.0 mm
12:40 AM 75.3°F24.1°C 70.1°F21.2°C 84% Calm Calm -- 29.88 in1011.9 mb - 0.00 in0.0 mm 0.00 in0.0 mm
12:30 AM 75.7°F24.3°C 70.2°F21.2°C 83% Calm Calm -- 29.88 in1011.9 mb - 0.00 in0.0 mm 0.00 in0.0 mm
12:20 AM 76.2°F24.6°C 70.3°F21.3°C 82% Calm Calm 1.2 mph1.9 kmh 29.88 in1011.9 mb - 0.00 in0.0 mm 0.00 in0.0 mm
12:10 AM 76.8°F24.9°C 70.5°F21.4°C 81% Calm Calm -- 29.87 in1011.5 mb - 0.00 in0.0 mm 0.00 in0.0 mm
12:00 AM 77.2°F25.1°C 70.9°F21.6°C 81% Calm Calm -- 29.88 in1011.9 mb - 0.00 in0.0 mm 0.00 in0.0 mm